Time;durP1;ratioP1;P1;durP2;ratioP2;P2;SDS_P1;SDS_P2;PMS_P1;PMS_P2;Temp;Humidity;BMP_temperature;BMP_pressure;BME280_temperature;BME280_humidity;BME280_pressure;Samples;Min_cycle;Max_cycle;Signal;HPM_P1;HPM_P2
2021/05/01 00:01:35;;;;;;;29.90;25.45;;;8.60;99.90;;;;;;4957530;28;20229;-83
2021/05/01 00:04:02;;;;;;;31.30;27.42;;;8.60;99.90;;;;;;4953034;28;20216;-82
2021/05/01 00:06:29;;;;;;;32.65;28.08;;;8.50;99.90;;;;;;4938096;29;20636;-82
2021/05/01 00:08:55;;;;;;;28.95;25.75;;;8.40;99.90;;;;;;4938153;28;20306;-81
2021/05/01 00:11:23;;;;;;;30.58;25.88;;;8.40;99.90;;;;;;4938742;28;20286;-81
2021/05/01 00:13:50;;;;;;;33.60;26.95;;;8.30;99.90;;;;;;4954941;28;20251;-82
2021/05/01 00:16:17;;;;;;;29.55;25.60;;;8.30;99.90;;;;;;4973498;28;20242;-81
2021/05/01 00:18:43;;;;;;;29.95;26.80;;;8.30;99.90;;;;;;4946674;28;20670;-80
2021/05/01 00:21:10;;;;;;;33.38;25.73;;;8.20;99.90;;;;;;4957756;28;20187;-82
2021/05/01 00:23:36;;;;;;;33.40;28.15;;;8.20;99.90;;;;;;4973253;28;20255;-82
2021/05/01 00:26:02;;;;;;;31.33;26.73;;;8.20;99.90;;;;;;4955910;28;20304;-79
2021/05/01 00:28:29;;;;;;;35.95;29.38;;;8.20;99.90;;;;;;4957065;28;20692;-81
2021/05/01 00:30:55;;;;;;;38.60;29.27;;;8.10;99.90;;;;;;4957311;28;20282;-81
2021/05/01 00:33:21;;;;;;;36.70;28.73;;;8.10;99.90;;;;;;4956217;28;20895;-82
2021/05/01 00:35:48;;;;;;;37.58;29.00;;;8.20;99.90;;;;;;4964664;28;20369;-80
2021/05/01 00:38:14;;;;;;;38.42;29.90;;;8.20;99.90;;;;;;4956408;28;20322;-83
2021/05/01 00:40:40;;;;;;;37.13;28.20;;;8.10;99.90;;;;;;4956453;28;20193;-82
2021/05/01 00:43:07;;;;;;;36.03;29.65;;;8.10;99.90;;;;;;4956023;28;20226;-81
2021/05/01 00:45:33;;;;;;;36.75;30.08;;;8.00;99.90;;;;;;4955898;28;20590;-81
2021/05/01 00:47:59;;;;;;;36.67;29.85;;;7.90;99.90;;;;;;4957094;28;20651;-81
2021/05/01 00:50:26;;;;;;;34.72;29.83;;;7.90;99.90;;;;;;4957221;28;20195;-83
2021/05/01 00:52:52;;;;;;;36.28;29.70;;;7.70;99.90;;;;;;4956167;28;20223;-82
2021/05/01 00:55:36;;;;;;;42.15;32.35;;;7.70;99.90;;;;;;4947125;28;20215;-82
2021/05/01 00:58:03;;;;;;;37.75;29.75;;;7.60;99.90;;;;;;4971847;28;20305;-81
2021/05/01 01:00:48;;;;;;;37.08;28.73;;;7.60;99.90;;;;;;4934649;29;20781;-80
2021/05/01 01:03:14;;;;;;;36.80;30.10;;;7.60;99.90;;;;;;4950946;28;20229;-80
2021/05/01 01:05:41;;;;;;;33.65;29.55;;;7.60;99.90;;;;;;4948942;28;20385;-80
2021/05/01 01:08:07;;;;;;;37.47;30.15;;;7.60;99.90;;;;;;4955396;28;20219;-80
2021/05/01 01:10:33;;;;;;;37.38;30.67;;;7.60;99.90;;;;;;4959884;28;20195;-80
2021/05/01 01:13:00;;;;;;;33.72;29.73;;;7.60;99.90;;;;;;4974343;28;20247;-80
2021/05/01 01:15:29;;;;;;;37.92;31.25;;;7.60;99.90;;;;;;4957565;28;20242;-81
2021/05/01 01:17:56;;;;;;;41.72;32.47;;;7.60;99.90;;;;;;4957088;28;20307;-81
2021/05/01 01:20:23;;;;;;;40.72;33.08;;;7.60;99.90;;;;;;4957131;28;20241;-79
2021/05/01 01:22:51;;;;;;;39.83;31.05;;;7.60;99.90;;;;;;4956904;28;20327;-81
2021/05/01 01:25:17;;;;;;;38.13;31.77;;;7.70;99.90;;;;;;4956405;28;20222;-81
2021/05/01 01:27:44;;;;;;;35.22;29.55;;;7.70;99.90;;;;;;4968707;28;20688;-81
2021/05/01 01:30:13;;;;;;;40.92;31.85;;;7.80;99.90;;;;;;4938643;28;20206;-81
2021/05/01 01:32:42;;;;;;;45.08;33.33;;;7.90;99.90;;;;;;4972807;28;20301;-80
2021/05/01 01:35:10;;;;;;;40.92;32.00;;;8.00;99.90;;;;;;4972956;28;20660;-80
2021/05/01 01:37:42;;;;;;;39.05;31.20;;;8.00;99.90;;;;;;4972667;28;20222;-79
2021/05/01 01:40:10;;;;;;;39.20;34.20;;;8.00;99.90;;;;;;4956848;28;20191;-80
2021/05/01 01:42:40;;;;;;;42.83;34.80;;;8.00;99.90;;;;;;4932564;28;20315;-81
2021/05/01 01:45:12;;;;;;;41.25;33.00;;;8.00;99.90;;;;;;4948569;28;20242;-81
2021/05/01 01:47:39;;;;;;;42.15;32.95;;;8.00;99.90;;;;;;4935922;29;20738;-81
2021/05/01 01:50:08;;;;;;;40.85;31.80;;;8.10;99.90;;;;;;4945128;28;20199;-81
2021/05/01 01:52:37;;;;;;;40.17;33.03;;;8.00;99.90;;;;;;4972107;28;20227;-81
2021/05/01 01:55:06;;;;;;;44.17;36.00;;;8.00;99.90;;;;;;4954578;28;20727;-82
2021/05/01 01:57:32;;;;;;;44.97;33.42;;;8.20;99.90;;;;;;4955139;28;20234;-80
2021/05/01 01:59:59;;;;;;;47.08;36.35;;;8.20;99.90;;;;;;4972196;28;20195;-81
2021/05/01 02:02:39;;;;;;;42.50;32.80;;;8.20;99.90;;;;;;4973930;28;20233;-81
2021/05/01 02:05:06;;;;;;;43.67;33.97;;;8.10;99.90;;;;;;4943721;28;20200;-81
2021/05/01 02:07:33;;;;;;;42.63;33.35;;;8.10;99.90;;;;;;4952039;28;20322;-80
2021/05/01 02:09:59;;;;;;;44.65;35.80;;;8.00;99.90;;;;;;4964159;28;20192;-81
2021/05/01 02:12:26;;;;;;;43.42;35.25;;;8.00;99.90;;;;;;4971444;28;20253;-79
2021/05/01 02:14:52;;;;;;;39.20;33.50;;;8.00;99.90;;;;;;4960821;28;20227;-80
2021/05/01 02:17:19;;;;;;;44.70;34.38;;;8.00;99.90;;;;;;4936200;29;20215;-81
2021/05/01 02:19:46;;;;;;;47.80;33.08;;;8.00;99.90;;;;;;4967173;28;20692;-82
2021/05/01 02:22:12;;;;;;;38.33;33.35;;;8.00;99.90;;;;;;4973191;28;20239;-80
2021/05/01 02:24:38;;;;;;;39.72;32.75;;;8.00;99.90;;;;;;4963350;28;20276;-80
2021/05/01 02:27:05;;;;;;;46.50;36.25;;;8.00;99.90;;;;;;4953209;28;20683;-81
2021/05/01 02:29:32;;;;;;;41.53;34.67;;;8.00;99.90;;;;;;4972697;28;20195;-79
2021/05/01 02:31:59;;;;;;;41.35;32.53;;;8.00;99.90;;;;;;4955196;28;20187;-80
2021/05/01 02:34:25;;;;;;;44.63;35.40;;;8.00;99.90;;;;;;4964844;28;20184;-81
2021/05/01 02:36:52;;;;;;;44.83;34.53;;;8.00;99.90;;;;;;4937144;28;20267;-79
2021/05/01 02:39:18;;;;;;;43.22;32.72;;;8.00;99.90;;;;;;4973043;28;20233;-81
2021/05/01 02:41:45;;;;;;;42.85;35.63;;;7.90;99.90;;;;;;4956590;28;20219;-81
2021/05/01 02:44:12;;;;;;;41.38;32.83;;;7.90;99.90;;;;;;4954306;28;20626;-81
2021/05/01 02:46:38;;;;;;;45.03;34.78;;;7.90;99.90;;;;;;4955657;28;20238;-79
2021/05/01 02:49:04;;;;;;;45.03;38.03;;;7.80;99.90;;;;;;4973639;28;20215;-81
2021/05/01 02:51:31;;;;;;;45.50;38.30;;;7.80;99.90;;;;;;4976618;28;20720;-81
2021/05/01 02:53:57;;;;;;;45.28;36.00;;;7.80;99.90;;;;;;4959072;28;20310;-82
2021/05/01 02:56:24;;;;;;;42.90;34.70;;;7.80;99.90;;;;;;4951670;28;20203;-82
2021/05/01 02:58:51;;;;;;;46.30;35.15;;;8.00;99.90;;;;;;4947712;28;20223;-81
2021/05/01 03:01:17;;;;;;;46.30;36.60;;;8.10;99.90;;;;;;4943122;28;20295;-81
2021/05/01 03:03:46;;;;;;;45.58;36.53;;;8.10;99.90;;;;;;4969185;28;20258;-81
2021/05/01 03:06:15;;;;;;;45.30;36.50;;;8.10;99.90;;;;;;4959367;28;20277;-81
2021/05/01 03:08:41;;;;;;;47.53;36.03;;;8.00;99.90;;;;;;4959065;28;20243;-81
2021/05/01 03:11:08;;;;;;;49.25;36.08;;;8.00;99.90;;;;;;4958748;28;20187;-80
2021/05/01 03:13:35;;;;;;;46.53;35.38;;;8.10;99.90;;;;;;4963113;28;20263;-82
2021/05/01 03:16:02;;;;;;;47.05;38.58;;;8.00;99.90;;;;;;4956230;28;20204;-80
2021/05/01 03:18:28;;;;;;;45.88;38.00;;;8.00;99.90;;;;;;4960076;28;20223;-79
2021/05/01 03:20:55;;;;;;;42.78;34.80;;;7.90;99.90;;;;;;4964849;28;20451;-81
2021/05/01 03:23:21;;;;;;;47.75;37.38;;;7.90;99.90;;;;;;4968415;28;20249;-81
2021/05/01 03:25:48;;;;;;;47.08;38.60;;;7.80;99.90;;;;;;4943775;28;20211;-81
2021/05/01 03:28:14;;;;;;;42.80;36.67;;;7.70;99.90;;;;;;4958827;28;20309;-81
2021/05/01 03:30:41;;;;;;;46.65;38.00;;;7.70;99.90;;;;;;4973801;28;20226;-80
2021/05/01 03:33:07;;;;;;;43.13;35.00;;;7.60;99.90;;;;;;4966603;28;20508;-81
2021/05/01 03:35:35;;;;;;;51.92;36.72;;;7.60;99.90;;;;;;4975098;28;20231;-81
2021/05/01 03:38:01;;;;;;;48.42;36.85;;;7.60;99.90;;;;;;4957127;28;20242;-79
2021/05/01 03:40:27;;;;;;;46.88;36.47;;;7.60;99.90;;;;;;4943757;28;20199;-81
2021/05/01 03:42:55;;;;;;;50.42;38.13;;;7.50;99.90;;;;;;4973968;28;20241;-81
2021/05/01 03:45:21;;;;;;;44.65;36.30;;;7.50;99.90;;;;;;4974712;28;20238;-81
2021/05/01 03:47:48;;;;;;;43.47;37.72;;;7.50;99.90;;;;;;4940541;28;20235;-79
2021/05/01 03:50:14;;;;;;;45.25;35.30;;;7.40;99.90;;;;;;4960967;28;20543;-79
2021/05/01 03:52:41;;;;;;;43.88;35.17;;;7.30;99.90;;;;;;4975546;28;20264;-80
2021/05/01 03:55:09;;;;;;;40.60;33.35;;;7.30;99.90;;;;;;4974943;28;20195;-81
2021/05/01 03:57:50;;;;;;;39.85;34.38;;;7.20;99.90;;;;;;4960138;28;20219;-79
2021/05/01 04:00:18;;;;;;;50.45;37.55;;;7.20;99.90;;;;;;4957420;28;20754;-81
2021/05/01 04:02:44;;;;;;;46.85;36.83;;;7.20;99.90;;;;;;4959189;28;20239;-80
2021/05/01 04:05:13;;;;;;;46.35;37.45;;;7.20;99.90;;;;;;4974515;28;20680;-81
2021/05/01 04:07:40;;;;;;;42.30;34.10;;;7.20;99.90;;;;;;4973591;28;20231;-81
2021/05/01 04:10:08;;;;;;;47.40;35.03;;;7.30;99.90;;;;;;4973970;28;20195;-81
2021/05/01 04:12:34;;;;;;;52.20;38.03;;;7.40;99.90;;;;;;4962238;28;20310;-81
2021/05/01 04:15:00;;;;;;;46.50;38.42;;;7.40;99.90;;;;;;4955479;28;20220;-80
2021/05/01 04:17:27;;;;;;;51.22;38.70;;;7.40;99.90;;;;;;4952183;28;20233;-79
2021/05/01 04:19:53;;;;;;;50.58;39.00;;;7.40;99.90;;;;;;4979685;28;20187;-79
2021/05/01 04:22:24;;;;;;;51.53;36.33;;;7.50;99.90;;;;;;4967419;28;20235;-79
2021/05/01 04:24:51;;;;;;;51.25;39.10;;;7.50;99.90;;;;;;4938939;29;20707;-80
2021/05/01 04:27:20;;;;;;;51.78;38.58;;;7.50;99.90;;;;;;4942706;28;20223;-81
2021/05/01 04:29:47;;;;;;;55.55;39.70;;;7.50;99.90;;;;;;4974379;28;20622;-80
2021/05/01 04:32:13;;;;;;;60.35;40.75;;;7.60;99.90;;;;;;4971320;28;20234;-81
2021/05/01 04:34:40;;;;;;;51.00;38.90;;;7.60;99.90;;;;;;4940142;28;20191;-81
2021/05/01 04:37:06;;;;;;;54.58;40.13;;;7.70;99.90;;;;;;4975005;28;20242;-80
2021/05/01 04:39:34;;;;;;;55.28;41.33;;;7.80;99.90;;;;;;4975598;28;20532;-81
2021/05/01 04:42:02;;;;;;;62.60;43.25;;;7.70;99.90;;;;;;4954674;28;20207;-79
2021/05/01 04:44:35;;;;;;;54.92;41.22;;;7.80;99.90;;;;;;4940332;28;20278;-81
2021/05/01 04:47:02;;;;;;;52.20;40.40;;;7.80;99.90;;;;;;4971228;28;20564;-80
2021/05/01 04:49:30;;;;;;;57.95;40.55;;;7.90;99.90;;;;;;4954270;28;20731;-79
2021/05/01 04:51:58;;;;;;;57.38;43.25;;;7.90;99.90;;;;;;4955798;28;20218;-79
2021/05/01 04:54:24;;;;;;;58.83;43.28;;;7.90;99.90;;;;;;4955775;29;20188;-82
2021/05/01 04:56:51;;;;;;;61.38;44.20;;;7.80;99.90;;;;;;4968356;28;20743;-81
2021/05/01 04:59:17;;;;;;;54.50;41.30;;;7.80;99.90;;;;;;4973191;28;20627;-81
2021/05/01 05:01:44;;;;;;;55.13;41.85;;;7.80;99.90;;;;;;4974628;28;20179;-79
2021/05/01 05:04:10;;;;;;;51.20;40.92;;;7.80;99.90;;;;;;4973045;28;20226;-80
2021/05/01 05:06:37;;;;;;;57.13;41.70;;;7.80;99.90;;;;;;4973690;28;20623;-81
2021/05/01 05:09:04;;;;;;;55.80;41.75;;;7.80;99.90;;;;;;4973182;28;20218;-81
2021/05/01 05:11:30;;;;;;;53.25;40.03;;;7.80;99.90;;;;;;4953883;28;20203;-81
2021/05/01 05:13:57;;;;;;;48.08;39.15;;;7.80;99.90;;;;;;4962078;28;20497;-81
2021/05/01 05:16:23;;;;;;;51.47;39.55;;;7.80;99.90;;;;;;4956188;28;20624;-80
2021/05/01 05:18:50;;;;;;;57.88;40.05;;;7.70;99.90;;;;;;4956131;28;20211;-80
2021/05/01 05:21:17;;;;;;;50.00;39.50;;;7.80;99.90;;;;;;4956770;28;20183;-79
2021/05/01 05:23:43;;;;;;;51.75;40.95;;;7.80;99.90;;;;;;4943013;28;20286;-81
2021/05/01 05:26:10;;;;;;;52.10;39.33;;;8.00;99.90;;;;;;4957307;28;20239;-81
2021/05/01 05:28:36;;;;;;;60.15;41.38;;;8.00;99.90;;;;;;4957088;28;20226;-81
2021/05/01 05:31:03;;;;;;;51.78;40.05;;;8.00;99.90;;;;;;4956835;28;20223;-80
2021/05/01 05:33:29;;;;;;;46.90;38.40;;;8.20;99.90;;;;;;4952163;28;20259;-80
2021/05/01 05:35:56;;;;;;;44.42;35.85;;;8.30;99.90;;;;;;4953830;28;20283;-80
2021/05/01 05:38:22;;;;;;;48.10;37.67;;;8.40;99.90;;;;;;4952941;28;20314;-83
2021/05/01 05:40:49;;;;;;;44.35;35.33;;;8.50;99.90;;;;;;4941951;28;20286;-83
2021/05/01 05:43:15;;;;;;;50.78;37.35;;;8.70;99.90;;;;;;4954594;28;20594;-81
2021/05/01 05:45:44;;;;;;;44.25;37.17;;;8.80;99.90;;;;;;4928117;28;590206;-82
2021/05/01 05:48:10;;;;;;;44.75;36.17;;;8.80;99.90;;;;;;4934447;29;20231;-82
2021/05/01 05:50:37;;;;;;;48.22;36.35;;;8.90;99.90;;;;;;4957192;28;20203;-81
2021/05/01 05:53:03;;;;;;;47.92;38.90;;;8.90;99.90;;;;;;4953182;28;20230;-82
2021/05/01 05:55:30;;;;;;;52.30;37.60;;;8.90;99.90;;;;;;4937946;28;20221;-83
2021/05/01 05:57:57;;;;;;;46.17;37.50;;;8.90;99.90;;;;;;4935102;29;20231;-81
2021/05/01 06:00:25;;;;;;;44.65;36.83;;;8.90;99.90;;;;;;4952895;28;20187;-80
2021/05/01 06:02:59;;;;;;;46.60;36.47;;;8.90;99.90;;;;;;4956508;28;20231;-82
2021/05/01 06:05:35;;;;;;;47.08;38.00;;;8.80;99.90;;;;;;4944834;28;20222;-83
2021/05/01 06:08:05;;;;;;;45.15;36.33;;;8.80;99.90;;;;;;4970178;28;20210;-83
2021/05/01 06:10:34;;;;;;;49.58;36.65;;;8.80;99.90;;;;;;4955796;28;20295;-82
2021/05/01 06:13:03;;;;;;;52.03;38.00;;;8.90;99.90;;;;;;4971446;28;20314;-82
2021/05/01 06:15:31;;;;;;;42.72;34.22;;;9.00;99.90;;;;;;4969598;28;20301;-84
2021/05/01 06:18:00;;;;;;;43.30;33.90;;;9.20;99.90;;;;;;4951581;28;20314;-83
2021/05/01 06:20:28;;;;;;;37.13;30.40;;;9.60;99.90;;;;;;4937806;28;20243;-82
2021/05/01 06:22:55;;;;;;;41.22;29.95;;;10.00;99.90;;;;;;4955028;28;20279;-81
2021/05/01 06:25:22;;;;;;;34.33;28.13;;;10.30;99.90;;;;;;4956840;28;20757;-81
2021/05/01 06:27:52;;;;;;;35.00;28.23;;;10.60;99.90;;;;;;4954911;28;20236;-81
2021/05/01 06:30:20;;;;;;;40.33;29.75;;;10.60;99.90;;;;;;4956759;28;20200;-80
2021/05/01 06:32:48;;;;;;;36.40;29.50;;;10.30;99.90;;;;;;4944484;28;20227;-81
2021/05/01 06:35:14;;;;;;;41.55;30.80;;;10.00;99.90;;;;;;4958526;28;20207;-83
2021/05/01 06:37:41;;;;;;;38.72;30.88;;;9.90;99.90;;;;;;4954619;28;20587;-83
2021/05/01 06:40:12;;;;;;;40.58;31.75;;;9.90;99.90;;;;;;4949069;28;20196;-82
2021/05/01 06:42:56;;;;;;;43.63;33.00;;;9.70;99.90;;;;;;4973956;28;20315;-81
2021/05/01 06:45:23;;;;;;;43.50;33.58;;;9.70;99.90;;;;;;4960991;28;20608;-82
2021/05/01 06:47:52;;;;;;;38.95;31.30;;;9.90;99.90;;;;;;4954030;28;20226;-81
2021/05/01 06:50:22;;;;;;;33.85;29.15;;;10.20;99.90;;;;;;4954976;28;20654;-81
2021/05/01 06:52:49;;;;;;;34.22;27.55;;;10.30;99.90;;;;;;4958877;28;20319;-82
2021/05/01 06:55:18;;;;;;;38.25;31.17;;;10.30;99.90;;;;;;4940979;28;20351;-83
2021/05/01 06:57:50;;;;;;;35.60;29.42;;;10.30;99.90;;;;;;4973332;28;20223;-83
2021/05/01 07:00:19;;;;;;;40.40;32.17;;;10.30;99.90;;;;;;4959484;28;20196;-82
2021/05/01 07:02:52;;;;;;;45.60;35.50;;;10.30;99.90;;;;;;4950804;28;20561;-82
2021/05/01 07:05:24;;;;;;;42.08;34.17;;;10.30;99.90;;;;;;4953518;28;20860;-82
2021/05/01 07:07:51;;;;;;;48.97;34.03;;;10.30;99.90;;;;;;4964125;28;20219;-82
2021/05/01 07:10:18;;;;;;;45.55;35.97;;;10.50;99.90;;;;;;4943367;28;20404;-83
2021/05/01 07:12:45;;;;;;;48.95;35.25;;;10.70;99.90;;;;;;4968907;28;20232;-82
2021/05/01 07:15:16;;;;;;;49.08;38.88;;;10.80;99.90;;;;;;4950512;29;20564;-82
2021/05/01 07:17:45;;;;;;;46.93;38.07;;;10.80;99.90;;;;;;4943956;28;20708;-82
2021/05/01 07:20:13;;;;;;;43.00;35.63;;;10.90;99.90;;;;;;4966629;28;20455;-83
2021/05/01 07:22:41;;;;;;;48.87;38.03;;;11.00;99.90;;;;;;4965105;28;21067;-82
2021/05/01 07:25:10;;;;;;;42.85;35.17;;;11.20;99.90;;;;;;4957198;28;20432;-81
2021/05/01 07:27:46;;;;;;;44.10;34.97;;;11.10;99.90;;;;;;4973188;28;20635;-83
2021/05/01 07:30:15;;;;;;;45.70;35.90;;;11.00;99.90;;;;;;4972186;28;20188;-81
2021/05/01 07:32:45;;;;;;;50.83;36.40;;;11.10;99.90;;;;;;4939025;29;20601;-83
2021/05/01 07:35:15;;;;;;;50.65;37.42;;;11.10;99.90;;;;;;4945961;28;20208;-83
2021/05/01 07:37:45;;;;;;;47.08;36.10;;;11.00;99.90;;;;;;4957482;28;20703;-82
2021/05/01 07:40:12;;;;;;;43.95;35.38;;;10.70;99.90;;;;;;4951849;28;20660;-84
2021/05/01 07:42:43;;;;;;;50.30;34.78;;;10.70;99.90;;;;;;4957455;28;20591;-83
2021/05/01 07:45:12;;;;;;;44.88;33.92;;;10.70;99.90;;;;;;4956575;28;20295;-82
2021/05/01 07:47:39;;;;;;;42.83;32.80;;;10.80;99.40;;;;;;4955432;28;20728;-82
2021/05/01 07:50:07;;;;;;;41.47;31.80;;;10.80;99.40;;;;;;4952445;28;20252;-80
2021/05/01 07:52:35;;;;;;;39.63;32.05;;;10.90;98.60;;;;;;4953346;28;20230;-83
2021/05/01 07:55:03;;;;;;;41.58;33.53;;;11.00;98.10;;;;;;4955298;28;20180;-81
2021/05/01 07:57:30;;;;;;;45.03;34.10;;;11.10;97.60;;;;;;4953619;28;20226;-83
2021/05/01 07:59:56;;;;;;;44.57;34.87;;;11.20;97.60;;;;;;4952839;28;20461;-82
2021/05/01 08:02:23;;;;;;;43.20;34.37;;;11.50;97.40;;;;;;4940967;28;20510;-82
2021/05/01 08:05:10;;;;;;;43.63;35.20;;;11.60;97.10;;;;;;4948194;28;20474;-81
2021/05/01 08:07:37;;;;;;;45.93;35.90;;;11.80;96.40;;;;;;4973953;28;20537;-82
2021/05/01 08:10:05;;;;;;;41.73;34.27;;;11.80;95.60;;;;;;4944364;28;20555;-81
2021/05/01 08:12:32;;;;;;;36.27;31.70;;;12.00;94.00;;;;;;4952367;28;21007;-82
2021/05/01 08:14:59;;;;;;;38.40;31.87;;;12.00;91.90;;;;;;4953528;28;20482;-84
2021/05/01 08:17:25;;;;;;;38.40;32.40;;;11.90;91.60;;;;;;4963648;28;20463;-82
2021/05/01 08:19:53;;;;;;;45.90;34.33;;;11.90;92.50;;;;;;4961718;28;20450;-81
2021/05/01 08:22:20;;;;;;;38.90;33.30;;;11.80;92.20;;;;;;4941710;28;20466;-83
2021/05/01 08:24:47;;;;;;;43.10;32.70;;;12.00;92.40;;;;;;4973315;28;20457;-83
2021/05/01 08:27:14;;;;;;;35.20;31.20;;;12.10;92.50;;;;;;4941158;28;21008;-83
2021/05/01 08:29:40;;;;;;;36.03;32.10;;;12.10;91.70;;;;;;4956279;28;20431;-85
2021/05/01 08:32:07;;;;;;;31.83;26.37;;;12.10;92.00;;;;;;4956767;28;20439;-83
2021/05/01 08:34:33;;;;;;;34.83;27.00;;;12.20;84.00;;;;;;4936813;28;20450;-80
2021/05/01 08:37:00;;;;;;;31.67;27.83;;;12.20;85.50;;;;;;4956180;28;20455;-82
2021/05/01 08:39:52;;;;;;;38.90;28.90;;;12.40;86.90;;;;;;4963962;28;20549;-80
2021/05/01 08:42:18;;;;;;;35.47;28.00;;;12.80;90.20;;;;;;5009335;28;20452;-78
2021/05/01 08:44:45;;;;;;;30.53;25.23;;;12.90;88.20;;;;;;5013285;28;20861;-77
2021/05/01 08:47:11;;;;;;;29.50;26.10;;;13.00;78.30;;;;;;5010614;28;20870;-77
2021/05/01 08:49:39;;;;;;;29.33;26.33;;;12.80;79.40;;;;;;5011339;28;20457;-77
2021/05/01 08:52:06;;;;;;;29.83;25.17;;;12.70;82.50;;;;;;5011418;28;20487;-77
2021/05/01 08:54:32;;;;;;;33.70;27.13;;;12.70;81.00;;;;;;5012893;28;20432;-77
2021/05/01 08:57:00;;;;;;;29.10;23.40;;;12.70;82.70;;;;;;5010435;28;20469;-77
2021/05/01 08:59:26;;;;;;;32.67;24.30;;;12.70;78.60;;;;;;5011784;28;20512;-77
2021/05/01 09:01:53;;;;;;;31.40;23.00;;;12.80;78.20;;;;;;5012275;28;20421;-77
2021/05/01 09:04:20;;;;;;;31.60;25.17;;;13.10;75.60;;;;;;5011026;28;20895;-77
2021/05/01 09:06:47;;;;;;;27.37;24.37;;;13.20;79.30;;;;;;5011562;28;20555;-77
2021/05/01 09:09:14;;;;;;;27.17;23.50;;;13.40;75.80;;;;;;5012162;28;20475;-77
2021/05/01 09:11:45;;;;;;;24.33;21.70;;;13.50;73.60;;;;;;5012275;28;20432;-77
2021/05/01 09:14:16;;;;;;;26.13;23.43;;;13.50;70.70;;;;;;4994657;28;20479;-77
2021/05/01 09:16:43;;;;;;;24.10;21.50;;;13.50;72.60;;;;;;5011097;28;20471;-77
2021/05/01 09:19:10;;;;;;;20.40;18.30;;;13.50;73.20;;;;;;5011562;28;20835;-77
2021/05/01 09:21:36;;;;;;;30.27;21.10;;;13.40;69.40;;;;;;5012682;28;20428;-77
2021/05/01 09:24:03;;;;;;;24.13;21.57;;;13.40;71.80;;;;;;5011977;28;20689;-77
2021/05/01 09:26:41;;;;;;;23.10;19.93;;;13.30;73.10;;;;;;5010713;28;20464;-77
2021/05/01 09:29:26;;;;;;;27.63;21.83;;;13.30;70.30;;;;;;5011568;28;20455;-77
2021/05/01 09:31:52;;;;;;;23.67;20.03;;;13.40;70.30;;;;;;4994604;28;20867;-77
2021/05/01 09:34:19;;;;;;;21.90;19.57;;;13.40;70.80;;;;;;4994223;28;20440;-77
2021/05/01 09:36:45;;;;;;;20.47;18.33;;;13.50;68.90;;;;;;5012192;28;20445;-77
2021/05/01 09:39:14;;;;;;;22.43;19.73;;;13.60;68.90;;;;;;5011883;28;20472;-77
2021/05/01 09:41:46;;;;;;;25.07;18.07;;;13.80;68.60;;;;;;5012693;28;20448;-77
2021/05/01 09:44:15;;;;;;;25.17;18.30;;;13.90;68.90;;;;;;5013935;28;20500;-77
2021/05/01 09:46:53;;;;;;;22.43;17.80;;;14.10;65.30;;;;;;5012738;28;20453;-77
2021/05/01 09:49:31;;;;;;;23.17;18.93;;;14.20;67.70;;;;;;5011952;28;20491;-77
2021/05/01 09:52:10;;;;;;;20.53;18.33;;;14.00;64.60;;;;;;4991956;28;20517;-77
2021/05/01 09:54:47;;;;;;;18.97;16.80;;;14.00;64.20;;;;;;4991440;28;20932;-77
2021/05/01 09:57:18;;;;;;;16.97;15.20;;;13.90;59.40;;;;;;5009669;28;20452;-77
2021/05/01 09:59:54;;;;;;;18.00;16.20;;;13.80;58.70;;;;;;4993857;28;20424;-77
2021/05/01 10:02:24;;;;;;;25.47;15.67;;;13.70;66.90;;;;;;4993929;28;20476;-77
2021/05/01 10:05:04;;;;;;;23.90;16.17;;;13.90;69.80;;;;;;5011426;28;20472;-77
2021/05/01 10:07:32;;;;;;;29.83;18.03;;;14.10;70.60;;;;;;5011639;28;20453;-77
2021/05/01 10:09:59;;;;;;;21.90;19.60;;;14.20;71.50;;;;;;5011878;28;20428;-77
2021/05/01 10:12:40;;;;;;;22.43;18.83;;;14.40;63.50;;;;;;5011301;28;20533;-77
2021/05/01 10:15:18;;;;;;;24.07;17.30;;;14.50;65.30;;;;;;5011602;28;20419;-77
2021/05/01 10:17:45;;;;;;;20.13;17.27;;;14.30;63.10;;;;;;5004233;28;20469;-75
2021/05/01 10:20:15;;;;;;;18.20;16.30;;;14.20;60.10;;;;;;5006773;28;20545;-75
2021/05/01 10:22:51;;;;;;;18.20;15.33;;;14.20;63.00;;;;;;5005267;28;20983;-75
2021/05/01 10:25:17;;;;;;;17.47;15.70;;;14.20;64.20;;;;;;5009697;28;20478;-75
2021/05/01 10:28:03;;;;;;;17.47;15.67;;;14.20;62.30;;;;;;4999556;28;20461;-75
2021/05/01 10:30:56;;;;;;;15.73;14.27;;;14.00;63.30;;;;;;5003940;28;20472;-75
2021/05/01 10:33:37;;;;;;;18.23;16.27;;;14.10;63.50;;;;;;5007963;28;20498;-75
2021/05/01 10:36:05;;;;;;;17.37;15.60;;;14.30;60.50;;;;;;4992644;28;20551;-75
2021/05/01 10:38:33;;;;;;;17.77;15.90;;;14.30;60.10;;;;;;5009052;28;20528;-75
2021/05/01 10:41:13;;;;;;;18.90;16.80;;;14.30;59.40;;;;;;5001386;28;20453;-75
2021/05/01 10:43:48;;;;;;;17.50;15.70;;;14.40;60.10;;;;;;5007008;28;20474;-75
2021/05/01 10:46:28;;;;;;;17.57;15.80;;;14.40;60.10;;;;;;5010148;28;20451;-75
2021/05/01 10:48:57;;;;;;;16.40;14.80;;;14.50;59.00;;;;;;5002940;28;20850;-75
2021/05/01 10:51:35;;;;;;;16.20;14.73;;;14.70;58.00;;;;;;5008101;28;20530;-75
2021/05/01 10:54:25;;;;;;;13.10;11.70;;;14.70;56.70;;;;;;4992800;28;21053;-75
2021/05/01 10:56:54;;;;;;;15.10;13.50;;;14.50;54.00;;;;;;4993045;28;20832;-75
2021/05/01 10:59:27;;;;;;;14.83;12.90;;;14.20;57.00;;;;;;5005820;28;20536;-75
2021/05/01 11:01:57;;;;;;;15.53;13.97;;;14.20;58.40;;;;;;4985025;28;20441;-75
2021/05/01 11:04:26;;;;;;;15.83;14.17;;;14.40;57.30;;;;;;5008497;28;20978;-75
2021/05/01 11:07:24;;;;;;;17.47;15.53;;;14.50;57.50;;;;;;5004546;28;20449;-75
2021/05/01 11:09:51;;;;;;;18.93;12.03;;;14.60;55.80;;;;;;4989171;28;20804;-75
2021/05/01 11:12:21;;;;;;;15.20;13.67;;;14.70;55.20;;;;;;4998792;28;20455;-75
2021/05/01 11:15:11;;;;;;;15.20;12.30;;;14.70;54.40;;;;;;5010266;28;20445;-75
2021/05/01 11:18:09;;;;;;;13.57;12.27;;;14.80;53.10;;;;;;5009517;28;20504;-75
2021/05/01 11:20:36;;;;;;;11.40;10.30;;;14.70;53.50;;;;;;4991624;28;20792;-75
2021/05/01 11:23:03;;;;;;;11.20;10.20;;;14.70;52.20;;;;;;5002766;28;20477;-75
2021/05/01 11:25:30;;;;;;;10.50;9.40;;;14.70;50.50;;;;;;4984993;28;20470;-75
2021/05/01 11:27:57;;;;;;;9.93;8.93;;;14.70;49.70;;;;;;5005778;28;20466;-75
2021/05/01 11:30:26;;;;;;;10.07;9.07;;;14.50;48.80;;;;;;5005248;28;20494;-75
2021/05/01 11:32:54;;;;;;;9.07;8.17;;;14.40;51.20;;;;;;4999408;28;20549;-75
2021/05/01 11:35:26;;;;;;;8.67;7.87;;;14.40;53.10;;;;;;5009735;28;20445;-75
2021/05/01 11:38:00;;;;;;;8.70;7.83;;;14.40;51.70;;;;;;4999449;28;20473;-75
2021/05/01 11:40:30;;;;;;;9.77;8.77;;;14.40;53.00;;;;;;4991551;28;20460;-75
2021/05/01 11:42:58;;;;;;;10.23;8.93;;;14.30;49.90;;;;;;5000950;28;20556;-75
2021/05/01 11:45:33;;;;;;;10.63;8.47;;;14.20;51.90;;;;;;4979679;28;20462;-77
2021/05/01 11:48:05;;;;;;;10.47;9.37;;;14.20;53.50;;;;;;4993016;28;20538;-77
2021/05/01 11:50:37;;;;;;;8.90;8.10;;;14.20;50.80;;;;;;5003805;28;20799;-77
2021/05/01 11:53:35;;;;;;;9.57;8.60;;;14.20;52.20;;;;;;5005891;28;20840;-78
2021/05/01 11:56:25;;;;;;;9.73;8.83;;;14.10;51.40;;;;;;5007558;28;20556;-77
2021/05/01 11:59:07;;;;;;;8.30;7.50;;;14.30;51.50;;;;;;4999520;28;20461;-77
2021/05/01 12:01:58;;;;;;;9.30;7.60;;;14.40;51.60;;;;;;5011326;28;20798;-77
2021/05/01 12:04:59;;;;;;;25.10;8.50;;;14.50;51.80;;;;;;4976817;28;20817;-76
2021/05/01 12:07:38;;;;;;;7.60;6.63;;;14.50;54.30;;;;;;4994637;28;20478;-77
2021/05/01 12:10:10;;;;;;;8.30;6.50;;;14.40;55.30;;;;;;4992777;28;20429;-77
2021/05/01 12:12:42;;;;;;;9.23;7.43;;;14.30;52.70;;;;;;5000285;28;20545;-77
2021/05/01 12:15:16;;;;;;;8.30;7.33;;;14.40;53.50;;;;;;5009727;28;20480;-78
2021/05/01 12:17:53;;;;;;;8.37;7.57;;;14.50;55.10;;;;;;5003356;28;20857;-77
2021/05/01 12:20:24;;;;;;;10.03;9.07;;;14.70;55.30;;;;;;4988068;28;20438;-77
2021/05/01 12:22:54;;;;;;;10.93;7.40;;;14.80;53.40;;;;;;5007606;28;20476;-77
2021/05/01 12:25:29;;;;;;;9.90;8.03;;;14.90;49.00;;;;;;5010814;28;20512;-76
2021/05/01 12:27:57;;;;;;;8.77;7.90;;;14.80;51.40;;;;;;5004162;28;20546;-77
2021/05/01 12:30:46;;;;;;;9.00;7.63;;;14.80;52.70;;;;;;4974612;28;20957;-77
2021/05/01 12:33:32;;;;;;;7.30;6.70;;;14.80;51.60;;;;;;4992150;28;20735;-77
2021/05/01 12:36:00;;;;;;;7.27;6.40;;;14.80;50.90;;;;;;5004783;28;20456;-78
2021/05/01 12:38:28;;;;;;;8.03;6.47;;;14.80;51.30;;;;;;5010214;28;20493;-77
2021/05/01 12:41:10;;;;;;;9.07;7.40;;;14.80;51.30;;;;;;5006926;28;20462;-78
2021/05/01 12:43:42;;;;;;;8.33;7.53;;;14.90;50.50;;;;;;5011360;28;20474;-77
2021/05/01 12:46:28;;;;;;;16.90;7.53;;;14.80;50.60;;;;;;4999837;28;21062;-77